HADR/DIR METAR and TAF weather

Enter ICAO airport designator
Station Type Date Time Source
HADR METAR 2018/10/21 05:00 UTC NOAA

HADR 210500Z 27010KT 9999 SCT027 23/19 Q1022


Station Type Date Time Source
HADR Decoded METAR 2018/10/21 05:00 UTC NOAA

Dire Dawa, Ethiopia (HADR) 09-36N 041-52E 1146M
Oct 21, 2018 - 01:00 AM EDT / 2018.10.21 0500 UTC
Wind: from the W (270 degrees) at 12 MPH (10 KT):0
Visibility: greater than 7 mile(s):0
Sky conditions: partly cloudy
Temperature: 73 F (23 C)
Dew Point: 66 F (19 C)
Relative Humidity: 78%
Pressure (altimeter): 30.18 in. Hg (1022 hPa)
ob: HADR 210500Z 27010KT 9999 SCT027 23/19 Q1022
cycle: 5

Station Type Date Time Source
HADR TAF 2018/10/20 18:20 UTC NOAA

TAF HADR 201530Z 2018/2124 18004KT 9999 FEW030 SCT080
BECMG 2010/2015 9000 RA


Example: see airport list